createdAt,value
2023-01-17T00:00:01.708Z,65.93
2023-01-17T00:02:28.055Z,65.99
2023-01-17T00:04:54.314Z,66.24
2023-01-17T00:07:20.549Z,66.01
2023-01-17T00:09:46.816Z,65.86
2023-01-17T00:12:13.083Z,66.24
2023-01-17T00:14:39.320Z,66.31
2023-01-17T00:17:05.580Z,66.41
2023-01-17T00:19:31.845Z,65.97
2023-01-17T00:21:58.093Z,65.92
2023-01-17T00:24:24.342Z,66.44
2023-01-17T00:26:50.575Z,66.67
2023-01-17T00:29:16.800Z,66.25
2023-01-17T00:31:43.141Z,66.29
2023-01-17T00:34:09.419Z,66.01
2023-01-17T00:36:35.651Z,66.15
2023-01-17T00:39:01.901Z,66.59
2023-01-17T00:41:28.148Z,66.23
2023-01-17T00:43:54.458Z,66.66
2023-01-17T00:46:20.835Z,66.49
2023-01-17T00:48:47.100Z,66.41
2023-01-17T00:51:13.375Z,66.77
2023-01-17T00:53:39.614Z,66.90
2023-01-17T00:56:05.876Z,66.84
2023-01-17T00:58:32.153Z,66.24
2023-01-17T01:00:58.515Z,66.66
2023-01-17T01:03:24.824Z,67.04
2023-01-17T01:05:51.090Z,67.21
2023-01-17T01:08:17.416Z,66.54
2023-01-17T01:10:43.643Z,66.92
2023-01-17T01:13:09.904Z,66.69
2023-01-17T01:15:36.169Z,66.42
2023-01-17T01:18:02.422Z,67.07
2023-01-17T01:20:28.689Z,67.19
2023-01-17T01:22:57.797Z,66.62
2023-01-17T01:25:24.337Z,66.72
2023-01-17T01:27:50.643Z,66.87
2023-01-17T01:30:16.941Z,67.01
2023-01-17T01:32:43.203Z,67.14
2023-01-17T01:35:09.498Z,66.69
2023-01-17T01:37:35.854Z,67.20
2023-01-17T01:40:02.166Z,67.28
2023-01-17T01:42:28.433Z,67.41
2023-01-17T01:44:54.713Z,66.71
2023-01-17T01:47:20.989Z,66.82
2023-01-17T01:49:47.293Z,66.66
2023-01-17T01:52:13.562Z,67.06
2023-01-17T01:54:39.855Z,66.64
2023-01-17T01:57:06.273Z,67.57
2023-01-17T01:59:32.529Z,67.19
2023-01-17T02:01:58.853Z,67.52
2023-01-17T02:04:25.133Z,67.03
2023-01-17T02:06:51.373Z,67.09
2023-01-17T02:09:17.608Z,67.44
2023-01-17T02:11:43.843Z,67.41
2023-01-17T02:14:10.083Z,66.87
2023-01-17T02:16:36.374Z,66.85
2023-01-17T02:19:02.641Z,67.07
2023-01-17T02:21:28.915Z,67.33
2023-01-17T02:23:55.171Z,67.03
2023-01-17T02:26:21.416Z,66.89
2023-01-17T02:28:47.675Z,66.99
2023-01-17T02:31:13.968Z,67.39
2023-01-17T02:33:40.230Z,67.09
2023-01-17T02:36:06.573Z,67.11
2023-01-17T02:38:32.814Z,66.88
2023-01-17T02:40:59.092Z,67.16
2023-01-17T02:43:25.341Z,66.60
2023-01-17T02:45:51.675Z,66.67
2023-01-17T02:48:18.064Z,66.70
2023-01-17T02:50:44.315Z,66.15
2023-01-17T02:53:10.552Z,66.66
2023-01-17T02:55:36.800Z,66.57
2023-01-17T02:58:03.099Z,66.59
2023-01-17T03:00:29.351Z,66.67
2023-01-17T03:02:55.624Z,66.77
2023-01-17T03:05:21.878Z,66.29
2023-01-17T03:07:48.120Z,66.57
2023-01-17T03:10:14.356Z,66.40
2023-01-17T03:12:40.592Z,66.22
2023-01-17T03:15:06.834Z,66.24
2023-01-17T03:17:33.118Z,66.24
2023-01-17T03:19:59.380Z,66.67
2023-01-17T03:22:25.624Z,66.61
2023-01-17T03:24:51.895Z,66.66
2023-01-17T03:27:18.162Z,66.62
2023-01-17T03:29:44.436Z,65.92
2023-01-17T03:32:10.695Z,66.23
2023-01-17T03:34:36.987Z,66.60
2023-01-17T03:37:03.277Z,67.16
2023-01-17T03:39:29.550Z,66.46
2023-01-17T03:41:55.811Z,66.31
2023-01-17T03:44:22.076Z,66.71
2023-01-17T03:46:48.331Z,66.55
2023-01-17T03:49:14.567Z,66.27
2023-01-17T03:51:40.860Z,66.97
2023-01-17T03:54:07.116Z,66.50
2023-01-17T03:56:33.348Z,66.80
2023-01-17T03:58:59.601Z,66.70
2023-01-17T04:01:26.109Z,66.69
2023-01-17T04:03:52.415Z,66.97
2023-01-17T04:06:18.682Z,66.71
2023-01-17T04:08:44.938Z,66.67
2023-01-17T04:11:11.185Z,66.86
2023-01-17T04:13:37.452Z,66.50
2023-01-17T04:16:03.733Z,67.24
2023-01-17T04:18:29.987Z,66.71
2023-01-17T04:20:56.332Z,66.80
2023-01-17T04:23:22.581Z,66.99
2023-01-17T04:25:48.827Z,67.21
2023-01-17T04:28:15.079Z,67.12
2023-01-17T04:30:41.363Z,66.90
2023-01-17T04:33:07.638Z,67.31
2023-01-17T04:35:33.905Z,67.76
2023-01-17T04:38:00.182Z,67.50
2023-01-17T04:40:26.432Z,67.49
2023-01-17T04:42:52.711Z,67.35
2023-01-17T04:45:18.969Z,66.95
2023-01-17T04:47:45.228Z,67.09
2023-01-17T04:50:11.511Z,67.19
2023-01-17T04:52:37.762Z,67.76
2023-01-17T04:55:04.043Z,67.10
2023-01-17T04:57:30.311Z,67.02
2023-01-17T04:59:56.570Z,67.52
2023-01-17T05:02:22.868Z,67.12
2023-01-17T05:04:49.168Z,67.62
2023-01-17T05:07:15.422Z,67.47
2023-01-17T05:09:41.686Z,67.47
2023-01-17T05:12:07.984Z,67.54
2023-01-17T05:14:34.252Z,67.68
2023-01-17T05:17:00.522Z,67.23
2023-01-17T05:19:26.776Z,66.92
2023-01-17T05:21:53.024Z,66.91
2023-01-17T05:24:19.277Z,66.51
2023-01-17T05:26:45.538Z,66.29
2023-01-17T05:29:11.806Z,66.57
2023-01-17T05:31:38.050Z,66.97
2023-01-17T05:34:04.296Z,66.65
2023-01-17T05:36:30.548Z,66.66
2023-01-17T05:38:56.797Z,66.88
2023-01-17T05:41:23.085Z,67.17
2023-01-17T05:43:49.360Z,67.24
2023-01-17T05:46:15.668Z,67.00
2023-01-17T05:48:41.945Z,67.44
2023-01-17T05:51:08.192Z,67.58
2023-01-17T05:53:34.497Z,67.89
2023-01-17T05:56:00.772Z,68.04
2023-01-17T05:58:27.027Z,67.54
2023-01-17T06:00:53.339Z,68.15
2023-01-17T06:03:19.617Z,67.75
2023-01-17T06:05:45.876Z,67.63
2023-01-17T06:08:12.133Z,66.96
2023-01-17T06:10:38.385Z,67.69
2023-01-17T06:13:04.654Z,67.07
2023-01-17T06:15:30.973Z,67.40
2023-01-17T06:17:57.257Z,67.44
2023-01-17T06:20:23.517Z,67.04
2023-01-17T06:22:49.812Z,66.63
2023-01-17T06:25:16.065Z,66.70
2023-01-17T06:27:42.375Z,66.83
2023-01-17T06:30:08.643Z,67.18
2023-01-17T06:32:34.996Z,66.97
2023-01-17T06:35:01.244Z,67.23
2023-01-17T06:37:27.520Z,66.70
2023-01-17T06:39:53.810Z,66.64
2023-01-17T06:42:20.067Z,66.61
2023-01-17T06:44:46.321Z,66.61
2023-01-17T06:47:12.582Z,66.31
2023-01-17T06:49:38.863Z,66.15
2023-01-17T06:52:05.143Z,66.68
2023-01-17T06:54:31.568Z,66.15
2023-01-17T06:56:57.875Z,66.64
2023-01-17T06:59:24.171Z,66.86
2023-01-17T07:01:50.447Z,66.23
2023-01-17T07:04:16.727Z,66.54
2023-01-17T07:06:43.038Z,66.77
2023-01-17T07:09:09.346Z,66.81
2023-01-17T07:11:35.673Z,66.47
2023-01-17T07:14:01.942Z,66.49
2023-01-17T07:16:28.314Z,67.16
2023-01-17T07:18:54.592Z,67.07
2023-01-17T07:21:20.905Z,66.51
2023-01-17T07:23:47.178Z,66.81
2023-01-17T07:26:13.483Z,67.10
2023-01-17T07:28:39.786Z,66.69
2023-01-17T07:31:06.037Z,67.33
2023-01-17T07:33:32.418Z,66.87
2023-01-17T07:35:58.710Z,67.00
2023-01-17T07:38:25.025Z,67.25
2023-01-17T07:40:51.329Z,67.25
2023-01-17T07:43:17.644Z,67.37
2023-01-17T07:45:43.927Z,66.99
2023-01-17T07:48:10.186Z,67.55
2023-01-17T07:50:36.450Z,67.05
2023-01-17T07:53:02.716Z,66.96
2023-01-17T07:55:29.006Z,66.74
2023-01-17T07:57:55.267Z,66.89
2023-01-17T08:00:21.586Z,67.18
2023-01-17T08:02:47.852Z,66.76
2023-01-17T08:05:14.240Z,66.75
2023-01-17T08:07:40.492Z,66.54
2023-01-17T08:10:06.787Z,66.37
2023-01-17T08:12:33.057Z,66.48
2023-01-17T08:14:59.324Z,66.53
2023-01-17T08:17:25.683Z,66.73
2023-01-17T08:19:51.961Z,66.90
2023-01-17T08:22:18.411Z,67.18
2023-01-17T08:24:44.772Z,67.33
2023-01-17T08:27:11.033Z,66.86
2023-01-17T08:29:37.306Z,66.63
2023-01-17T08:32:03.575Z,66.60
2023-01-17T08:34:29.834Z,66.46
2023-01-17T08:36:56.106Z,66.86
2023-01-17T08:39:22.364Z,66.38
2023-01-17T08:41:48.641Z,66.48
2023-01-17T08:44:14.902Z,66.58
2023-01-17T08:46:41.180Z,67.01
2023-01-17T08:49:07.436Z,66.65
2023-01-17T08:51:33.723Z,66.65
2023-01-17T08:54:00.059Z,66.95
2023-01-17T08:56:26.369Z,66.81
2023-01-17T08:58:52.639Z,67.22
2023-01-17T09:01:18.947Z,67.42
2023-01-17T09:03:45.283Z,67.31
2023-01-17T09:06:11.591Z,66.94
2023-01-17T09:08:37.865Z,67.05
2023-01-17T09:11:04.119Z,66.93
2023-01-17T09:13:30.377Z,67.20
2023-01-17T09:15:56.667Z,67.44
2023-01-17T09:18:22.952Z,67.02
2023-01-17T09:20:49.223Z,67.09
2023-01-17T09:23:15.489Z,67.23
2023-01-17T09:25:41.749Z,66.85
2023-01-17T09:28:08.143Z,67.18
2023-01-17T09:30:34.465Z,66.82
2023-01-17T09:33:00.766Z,67.00
2023-01-17T09:35:27.021Z,66.81
2023-01-17T09:37:53.287Z,66.97
2023-01-17T09:40:19.579Z,67.17
2023-01-17T09:42:45.831Z,66.99
2023-01-17T09:45:12.098Z,67.29
2023-01-17T09:47:38.371Z,67.60
2023-01-17T09:50:04.722Z,67.49
2023-01-17T09:52:30.991Z,66.86
2023-01-17T09:54:57.264Z,67.09
2023-01-17T09:57:23.551Z,67.12
2023-01-17T10:00:02.397Z,66.97
2023-01-17T10:02:29.541Z,67.41
2023-01-17T10:04:55.942Z,67.72
2023-01-17T10:07:22.194Z,67.67
2023-01-17T10:09:48.453Z,67.24
2023-01-17T10:12:14.795Z,67.74
2023-01-17T10:14:41.082Z,67.52
2023-01-17T10:17:07.352Z,67.86
2023-01-17T10:19:33.614Z,67.43
2023-01-17T10:21:59.892Z,67.29
2023-01-17T10:24:26.201Z,66.69
2023-01-17T10:26:52.578Z,66.82
2023-01-17T10:29:20.864Z,66.76
2023-01-17T10:31:47.415Z,67.05
2023-01-17T10:34:13.689Z,66.81
2023-01-17T10:36:39.994Z,67.15
2023-01-17T10:39:06.277Z,66.97
2023-01-17T10:41:32.564Z,66.79
2023-01-17T10:43:58.845Z,66.64
2023-01-17T10:46:25.293Z,66.66
2023-01-17T10:48:51.637Z,67.05
2023-01-17T10:51:17.885Z,66.75
2023-01-17T10:53:44.152Z,67.17
2023-01-17T10:56:10.440Z,66.64
2023-01-17T10:58:36.697Z,67.48
2023-01-17T11:01:03.138Z,67.29
2023-01-17T11:03:29.469Z,67.10
2023-01-17T11:05:55.872Z,67.40
2023-01-17T11:08:22.137Z,67.41
2023-01-17T11:10:48.430Z,66.90
2023-01-17T11:13:14.725Z,66.46
2023-01-17T11:15:41.018Z,67.09
2023-01-17T11:18:07.301Z,67.51
2023-01-17T11:20:33.636Z,67.46
2023-01-17T11:22:59.900Z,67.72
2023-01-17T11:25:26.182Z,67.95
2023-01-17T11:27:52.450Z,67.57
2023-01-17T11:30:18.753Z,67.01
2023-01-17T11:32:45.112Z,66.92
2023-01-17T11:35:11.380Z,66.69
2023-01-17T11:37:37.630Z,66.87
2023-01-17T11:40:03.915Z,66.36
2023-01-17T11:42:30.202Z,66.10
2023-01-17T11:44:56.460Z,65.50
2023-01-17T11:47:22.810Z,65.62
2023-01-17T11:49:50.158Z,65.80
2023-01-17T11:52:16.427Z,65.73
2023-01-17T11:54:42.713Z,65.51
2023-01-17T11:57:08.999Z,65.60
2023-01-17T11:59:35.312Z,65.73
2023-01-17T12:02:01.647Z,66.09
2023-01-17T12:04:27.887Z,66.05
2023-01-17T12:06:58.015Z,65.77
2023-01-17T12:09:24.796Z,65.85
2023-01-17T12:11:51.114Z,65.93
2023-01-17T12:14:17.378Z,66.25
2023-01-17T12:16:43.646Z,66.61
2023-01-17T12:19:09.975Z,66.54
2023-01-17T12:21:36.226Z,66.44
2023-01-17T12:24:02.551Z,66.74
2023-01-17T12:26:28.842Z,66.37
2023-01-17T12:28:55.243Z,66.80
2023-01-17T12:31:21.653Z,66.38
2023-01-17T12:33:47.945Z,66.44
2023-01-17T12:36:14.213Z,66.46
2023-01-17T12:38:40.469Z,66.72
2023-01-17T12:41:06.831Z,66.65
2023-01-17T12:43:33.104Z,66.33
2023-01-17T12:45:59.368Z,66.27
2023-01-17T12:48:25.673Z,66.67
2023-01-17T12:50:51.925Z,66.58
2023-01-17T12:53:18.205Z,66.73
2023-01-17T12:55:44.449Z,67.46
2023-01-17T12:58:10.697Z,67.66
2023-01-17T13:00:37.016Z,67.27
2023-01-17T13:03:03.365Z,67.43
2023-01-17T13:05:29.649Z,67.01
2023-01-17T13:07:55.908Z,66.99
2023-01-17T13:10:22.166Z,67.35
2023-01-17T13:12:48.481Z,66.65
2023-01-17T13:15:14.729Z,66.79
2023-01-17T13:17:40.985Z,67.19
2023-01-17T13:20:07.235Z,67.15
2023-01-17T13:22:33.485Z,66.93
2023-01-17T13:24:59.728Z,67.26
2023-01-17T13:27:25.972Z,67.32
2023-01-17T13:29:52.232Z,67.44
2023-01-17T13:32:18.495Z,66.81
2023-01-17T13:34:44.745Z,67.20
2023-01-17T13:37:11.012Z,66.93
2023-01-17T13:39:37.301Z,66.80
2023-01-17T13:42:03.572Z,67.09
2023-01-17T13:44:29.833Z,66.55
2023-01-17T13:46:56.201Z,67.00
2023-01-17T13:49:22.462Z,66.92
2023-01-17T13:51:48.716Z,66.82
2023-01-17T13:54:14.995Z,67.08
2023-01-17T13:56:41.280Z,66.96
2023-01-17T13:59:07.546Z,66.73
2023-01-17T14:01:33.862Z,66.90
2023-01-17T14:04:00.200Z,66.67
2023-01-17T14:06:26.504Z,66.93
2023-01-17T14:08:52.775Z,66.87
2023-01-17T14:11:19.056Z,67.34
2023-01-17T14:13:45.312Z,66.91
2023-01-17T14:16:11.595Z,66.99
2023-01-17T14:18:37.852Z,67.41
2023-01-17T14:21:04.097Z,67.46
2023-01-17T14:23:30.343Z,67.38
2023-01-17T14:25:56.617Z,67.49
2023-01-17T14:28:22.978Z,66.91
2023-01-17T14:30:49.217Z,67.92
2023-01-17T14:33:15.484Z,67.71
2023-01-17T14:35:41.761Z,67.80
2023-01-17T14:38:08.060Z,67.44
2023-01-17T14:40:34.346Z,67.30
2023-01-17T14:43:00.603Z,67.26
2023-01-17T14:45:26.913Z,67.26
2023-01-17T14:47:53.192Z,67.41
2023-01-17T14:50:19.441Z,67.46
2023-01-17T14:52:45.722Z,67.82
2023-01-17T14:55:12.119Z,67.88
2023-01-17T14:57:38.369Z,67.53
2023-01-17T15:00:04.725Z,67.43
2023-01-17T15:02:31.199Z,67.47
2023-01-17T15:04:57.541Z,67.51
2023-01-17T15:07:23.798Z,67.03
2023-01-17T15:09:50.057Z,66.85
2023-01-17T15:12:16.327Z,67.15
2023-01-17T15:14:42.602Z,67.33
2023-01-17T15:17:08.860Z,67.22
2023-01-17T15:19:35.149Z,67.12
2023-01-17T15:22:01.401Z,67.59
2023-01-17T15:24:27.685Z,67.43
2023-01-17T15:26:53.967Z,67.93
2023-01-17T15:29:20.235Z,67.78
2023-01-17T15:31:46.502Z,67.71
2023-01-17T15:34:12.746Z,67.04
2023-01-17T15:36:38.993Z,67.45
2023-01-17T15:39:05.341Z,67.48
2023-01-17T15:41:31.602Z,67.06
2023-01-17T15:43:57.850Z,67.61
2023-01-17T15:46:24.270Z,67.89
2023-01-17T15:48:50.561Z,67.23
2023-01-17T15:51:16.801Z,67.61
2023-01-17T15:53:43.107Z,67.32
2023-01-17T15:56:09.350Z,67.39
2023-01-17T15:58:35.655Z,67.47
2023-01-17T16:01:01.961Z,67.49
2023-01-17T16:03:28.289Z,67.33
2023-01-17T16:05:54.544Z,67.46
2023-01-17T16:08:20.806Z,67.60
2023-01-17T16:10:47.113Z,67.17
2023-01-17T16:13:13.371Z,67.06
2023-01-17T16:15:39.640Z,67.24
2023-01-17T16:18:05.920Z,67.35
2023-01-17T16:20:32.188Z,66.91
2023-01-17T16:23:00.304Z,67.26
2023-01-17T16:25:26.744Z,67.34
2023-01-17T16:27:53.395Z,66.63
2023-01-17T16:30:19.927Z,67.37
2023-01-17T16:32:46.162Z,66.90
2023-01-17T16:35:12.421Z,67.21
2023-01-17T16:37:38.698Z,67.33
2023-01-17T16:40:04.936Z,67.20
2023-01-17T16:42:31.178Z,67.30
2023-01-17T16:44:57.520Z,66.33
2023-01-17T16:47:23.777Z,66.24
2023-01-17T16:49:50.041Z,66.77
2023-01-17T16:52:16.323Z,66.84
2023-01-17T16:54:42.564Z,66.43
2023-01-17T16:57:08.842Z,66.30
2023-01-17T16:59:49.996Z,66.47
2023-01-17T17:02:16.870Z,66.31
2023-01-17T17:04:43.156Z,66.51
2023-01-17T17:07:09.428Z,67.15
2023-01-17T17:09:35.703Z,67.00
2023-01-17T17:12:01.979Z,66.78
2023-01-17T17:14:28.231Z,67.18
2023-01-17T17:16:54.494Z,67.16
2023-01-17T17:19:20.762Z,66.92
2023-01-17T17:21:47.027Z,67.41
2023-01-17T17:24:13.289Z,67.22
2023-01-17T17:26:39.531Z,67.19
2023-01-17T17:29:05.799Z,66.64
2023-01-17T17:31:32.126Z,67.19
2023-01-17T17:33:58.410Z,66.95
2023-01-17T17:36:24.660Z,67.38
2023-01-17T17:38:51.138Z,66.92
2023-01-17T17:41:17.449Z,67.12
2023-01-17T17:43:43.729Z,67.47
2023-01-17T17:46:10.057Z,67.63
2023-01-17T17:48:36.455Z,67.14
2023-01-17T17:51:02.713Z,67.31
2023-01-17T17:53:28.969Z,67.44
2023-01-17T17:55:55.213Z,67.55
2023-01-17T17:58:21.473Z,67.50
2023-01-17T18:00:47.777Z,67.19
2023-01-17T18:03:14.036Z,67.34
2023-01-17T18:05:40.292Z,66.85
2023-01-17T18:08:06.553Z,66.93
2023-01-17T18:10:32.815Z,66.82
2023-01-17T18:12:59.086Z,66.62
2023-01-17T18:15:25.344Z,66.69
2023-01-17T18:17:51.819Z,66.68
2023-01-17T18:20:18.250Z,66.85
2023-01-17T18:22:44.504Z,66.48
2023-01-17T18:25:10.756Z,66.63
2023-01-17T18:27:37.032Z,66.68
2023-01-17T18:30:03.322Z,66.65
2023-01-17T18:32:29.580Z,66.59
2023-01-17T18:34:55.842Z,66.36
2023-01-17T18:37:22.095Z,66.05
2023-01-17T18:39:48.339Z,65.58
2023-01-17T18:42:14.614Z,65.49
2023-01-17T18:44:40.875Z,65.77
2023-01-17T18:47:07.166Z,65.34
2023-01-17T18:49:33.429Z,62.83
2023-01-17T18:51:59.748Z,61.55
2023-01-17T18:54:26.002Z,61.40
2023-01-17T18:56:52.276Z,60.90
2023-01-17T18:59:18.734Z,60.78
2023-01-17T19:01:45.124Z,59.47
2023-01-17T19:04:11.458Z,58.16
2023-01-17T19:06:37.760Z,57.10
2023-01-17T19:09:04.019Z,58.02
2023-01-17T19:11:30.309Z,57.32
2023-01-17T19:13:56.570Z,57.40
2023-01-17T19:16:22.963Z,57.14
2023-01-17T19:18:49.298Z,57.53
2023-01-17T19:21:15.555Z,56.08
2023-01-17T19:23:41.836Z,55.73
2023-01-17T19:26:08.093Z,55.89
2023-01-17T19:28:35.600Z,54.51
2023-01-17T19:31:01.982Z,54.39
2023-01-17T19:33:28.443Z,53.41
2023-01-17T19:35:54.860Z,53.88
2023-01-17T19:38:21.266Z,54.09
2023-01-17T19:40:47.743Z,55.48
2023-01-17T19:43:14.029Z,56.51
2023-01-17T19:45:40.400Z,57.05
2023-01-17T19:48:06.689Z,57.42
2023-01-17T19:50:32.984Z,58.05
2023-01-17T19:52:59.269Z,57.92
2023-01-17T19:55:25.522Z,58.59
2023-01-17T19:57:51.779Z,58.15
2023-01-17T20:00:18.063Z,58.36
2023-01-17T20:02:44.377Z,58.58
2023-01-17T20:05:10.659Z,58.19
2023-01-17T20:07:36.942Z,58.40
2023-01-17T20:10:03.190Z,58.37
2023-01-17T20:12:29.503Z,57.79
2023-01-17T20:14:55.777Z,57.54
2023-01-17T20:17:22.089Z,57.91
2023-01-17T20:19:48.393Z,57.51
2023-01-17T20:22:14.676Z,57.57
2023-01-17T20:24:40.939Z,57.86
2023-01-17T20:27:07.189Z,58.02
2023-01-17T20:29:33.448Z,58.19
2023-01-17T20:31:59.769Z,58.41
2023-01-17T20:34:26.062Z,58.70
2023-01-17T20:36:52.336Z,59.02
2023-01-17T20:39:18.610Z,59.61
2023-01-17T20:41:45.958Z,59.46
2023-01-17T20:44:12.254Z,59.49
2023-01-17T20:46:40.650Z,59.41
2023-01-17T20:49:07.132Z,59.95
2023-01-17T20:51:33.433Z,59.45
2023-01-17T20:53:59.733Z,59.77
2023-01-17T20:56:26.004Z,60.19
2023-01-17T20:58:52.291Z,60.42
2023-01-17T21:01:18.617Z,60.48
2023-01-17T21:03:44.938Z,60.77
2023-01-17T21:06:11.235Z,61.55
2023-01-17T21:08:37.502Z,61.21
2023-01-17T21:11:03.765Z,61.53
2023-01-17T21:13:30.046Z,61.67
2023-01-17T21:15:56.308Z,61.86
2023-01-17T21:18:22.612Z,62.38
2023-01-17T21:20:48.902Z,62.78
2023-01-17T21:23:15.174Z,62.72
2023-01-17T21:25:41.423Z,62.11
2023-01-17T21:28:07.673Z,62.54
2023-01-17T21:30:33.948Z,62.25
2023-01-17T21:33:00.248Z,62.21
2023-01-17T21:35:26.544Z,61.91
2023-01-17T21:37:52.831Z,62.22
2023-01-17T21:40:19.102Z,62.01
2023-01-17T21:42:45.373Z,61.79
2023-01-17T21:45:11.636Z,61.59
2023-01-17T21:47:37.985Z,61.27
2023-01-17T21:50:04.282Z,60.98
2023-01-17T21:52:30.529Z,61.06
2023-01-17T21:54:56.780Z,60.52
2023-01-17T21:57:23.071Z,60.58
2023-01-17T21:59:49.327Z,60.67
2023-01-17T22:02:15.595Z,60.82
2023-01-17T22:04:41.878Z,60.84
2023-01-17T22:07:08.191Z,60.51
2023-01-17T22:09:34.441Z,61.53
2023-01-17T22:12:00.685Z,62.09
2023-01-17T22:14:26.912Z,62.20
2023-01-17T22:16:53.159Z,62.42
2023-01-17T22:19:19.420Z,62.57
2023-01-17T22:21:45.700Z,62.38
2023-01-17T22:24:11.956Z,62.24
2023-01-17T22:26:39.935Z,62.32
2023-01-17T22:29:07.256Z,62.48
2023-01-17T22:31:33.497Z,61.99
2023-01-17T22:33:59.739Z,62.54
2023-01-17T22:36:26.001Z,61.84
2023-01-17T22:38:52.273Z,61.84
2023-01-17T22:41:18.512Z,61.98
2023-01-17T22:43:44.768Z,61.99
2023-01-17T22:46:11.058Z,61.97
2023-01-17T22:48:37.365Z,62.05
2023-01-17T22:51:03.618Z,62.61
2023-01-17T22:53:29.880Z,63.02
2023-01-17T22:55:56.158Z,63.19
2023-01-17T22:58:22.427Z,63.53
2023-01-17T23:00:48.696Z,63.25
2023-01-17T23:03:15.047Z,63.36
2023-01-17T23:05:41.377Z,63.31
2023-01-17T23:08:07.642Z,63.59
2023-01-17T23:10:33.888Z,63.81
2023-01-17T23:13:00.267Z,63.39
2023-01-17T23:15:26.503Z,62.94
2023-01-17T23:17:52.744Z,62.98
2023-01-17T23:20:19.126Z,63.00
2023-01-17T23:22:45.374Z,63.02
2023-01-17T23:25:11.633Z,63.17
2023-01-17T23:27:37.888Z,62.73
2023-01-17T23:30:04.147Z,63.50
2023-01-17T23:32:30.426Z,63.59
2023-01-17T23:34:56.703Z,63.78
2023-01-17T23:37:22.952Z,64.17
2023-01-17T23:39:49.192Z,63.77
2023-01-17T23:42:15.448Z,63.86
2023-01-17T23:44:41.724Z,64.40
2023-01-17T23:47:07.967Z,64.64
2023-01-17T23:49:34.245Z,64.20
2023-01-17T23:52:00.527Z,64.48
2023-01-17T23:54:26.780Z,64.76
2023-01-17T23:56:53.140Z,64.84
2023-01-17T23:59:19.397Z,65.07
